Terminal Aerodrome Forecast
Issued by NWS Milwaukee/Sullivan, WI

Home | Current Version | Previous Version | Text Only | Print | Product List | Glossary On
Versions: 1 2 3 4 5 6 7 8 9 10 11 12 13 14 15 16 17 18 19 20 21 22 23 24 25 26 27 28 29 30 31 32 33 34 35 36 37 38 39 40 41 42 43 44 45 46 47 48 49 50
000
FTUS43 KMKX 281958 AAA
TAFMKE
TAF AMD
KMKE 281958Z 2820/2924 13005KT P6SM BKN100 BKN120
     FM282200 14007KT P6SM BKN080
     FM290100 11006KT P6SM SHRA OVC080
     FM290500 14007KT 5SM SHRA BR OVC050
     FM290900 15007KT 6SM SHRA BR OVC060
     FM291200 16007KT 5SM SHRA BR OVC010
     FM291800 17007KT P6SM OVC015=

USA.gov is the U.S. government's official web portal to all federal, state and local government web resources and services.